Terminal Aerodrome Forecast
Issued by NWS

Home | Current Version | Previous Version | Graphics & Text | Print | Product List | Glossary On
Versions: 1 2 3 4 5 6 7 8 9 10 11 12 13 14 15 16 17 18 19
653
FTUS43 KICT 180432 AAC
TAFHUT
TAF AMD
KHUT 180432Z 1805/1824 13005KT 1 1/2SM BR OVC002
      TEMPO 1805/1809 3SM BR OVC005
     FM180900 15007KT 3SM BR OVC004
     FM181500 16009KT 5SM BR OVC008
     FM181700 17013KT P6SM OVC013
     FM182000 18017KT P6SM SCT025 BKN050=

USA.gov is the U.S. government's official web portal to all federal, state and local government web resources and services.